sensor_id;sensor_type;location;lat;lon;timestamp;temperature;humidity
66608;DHT22;53462;39.616;8.824;2022-09-20T00:01:16;18.80;71.50
66608;DHT22;53462;39.616;8.824;2022-09-20T00:03:44;18.70;71.70
66608;DHT22;53462;39.616;8.824;2022-09-20T00:06:13;18.60;72.10
66608;DHT22;53462;39.616;8.824;2022-09-20T00:08:40;18.50;72.30
66608;DHT22;53462;39.616;8.824;2022-09-20T00:11:10;18.30;72.50
66608;DHT22;53462;39.616;8.824;2022-09-20T00:13:37;18.20;72.80
66608;DHT22;53462;39.616;8.824;2022-09-20T00:16:09;18.10;73.00
66608;DHT22;53462;39.616;8.824;2022-09-20T00:18:36;18.10;73.40
66608;DHT22;53462;39.616;8.824;2022-09-20T00:21:02;18.10;73.50
66608;DHT22;53462;39.616;8.824;2022-09-20T00:23:28;18.10;73.50
66608;DHT22;53462;39.616;8.824;2022-09-20T00:25:59;18.00;73.50
66608;DHT22;53462;39.616;8.824;2022-09-20T00:28:27;18.10;73.40
66608;DHT22;53462;39.616;8.824;2022-09-20T00:30:54;18.10;73.60
66608;DHT22;53462;39.616;8.824;2022-09-20T00:33:22;18.10;73.50
66608;DHT22;53462;39.616;8.824;2022-09-20T00:35:50;18.10;73.60
66608;DHT22;53462;39.616;8.824;2022-09-20T00:38:16;18.20;73.20
66608;DHT22;53462;39.616;8.824;2022-09-20T00:40:43;18.10;73.10
66608;DHT22;53462;39.616;8.824;2022-09-20T00:43:13;18.10;73.50
66608;DHT22;53462;39.616;8.824;2022-09-20T00:45:41;18.10;73.70
66608;DHT22;53462;39.616;8.824;2022-09-20T00:48:24;18.00;74.00
66608;DHT22;53462;39.616;8.824;2022-09-20T00:51:07;17.90;74.40
66608;DHT22;53462;39.616;8.824;2022-09-20T00:53:39;18.00;74.90
66608;DHT22;53462;39.616;8.824;2022-09-20T00:56:10;18.00;74.70
66608;DHT22;53462;39.616;8.824;2022-09-20T00:58:46;18.00;74.60
66608;DHT22;53462;39.616;8.824;2022-09-20T01:01:14;18.10;74.40
66608;DHT22;53462;39.616;8.824;2022-09-20T01:03:41;17.90;74.50
66608;DHT22;53462;39.616;8.824;2022-09-20T01:06:10;17.90;75.00
66608;DHT22;53462;39.616;8.824;2022-09-20T01:08:39;17.80;75.20
66608;DHT22;53462;39.616;8.824;2022-09-20T01:11:07;17.70;75.40
66608;DHT22;53462;39.616;8.824;2022-09-20T01:13:33;17.60;75.80
66608;DHT22;53462;39.616;8.824;2022-09-20T01:16:00;17.70;75.90
66608;DHT22;53462;39.616;8.824;2022-09-20T01:18:28;17.70;75.60
66608;DHT22;53462;39.616;8.824;2022-09-20T01:20:57;17.70;75.90
66608;DHT22;53462;39.616;8.824;2022-09-20T01:26:28;17.70;75.90
66608;DHT22;53462;39.616;8.824;2022-09-20T01:31:33;17.40;76.40
66608;DHT22;53462;39.616;8.824;2022-09-20T01:34:08;17.40;76.70
66608;DHT22;53462;39.616;8.824;2022-09-20T01:36:42;17.40;76.70
66608;DHT22;53462;39.616;8.824;2022-09-20T01:42:10;17.40;77.00
66608;DHT22;53462;39.616;8.824;2022-09-20T01:44:56;17.40;77.10
66608;DHT22;53462;39.616;8.824;2022-09-20T02:17:52;17.60;76.80
66608;DHT22;53462;39.616;8.824;2022-09-20T02:26:30;17.50;76.80
66608;DHT22;53462;39.616;8.824;2022-09-20T02:29:32;17.50;77.10
66608;DHT22;53462;39.616;8.824;2022-09-20T02:40:44;17.60;76.60
66608;DHT22;53462;39.616;8.824;2022-09-20T02:43:35;17.40;77.10
66608;DHT22;53462;39.616;8.824;2022-09-20T02:46:18;17.50;77.40
66608;DHT22;53462;39.616;8.824;2022-09-20T02:49:00;17.60;76.90
66608;DHT22;53462;39.616;8.824;2022-09-20T02:51:43;17.60;76.60
66608;DHT22;53462;39.616;8.824;2022-09-20T02:57:35;17.60;76.90
66608;DHT22;53462;39.616;8.824;2022-09-20T03:13:35;17.80;76.10
66608;DHT22;53462;39.616;8.824;2022-09-20T03:27:46;17.80;76.00
66608;DHT22;53462;39.616;8.824;2022-09-20T03:30:31;17.70;76.30
66608;DHT22;53462;39.616;8.824;2022-09-20T03:36:05;17.70;76.90
66608;DHT22;53462;39.616;8.824;2022-09-20T03:50:15;17.80;76.60
66608;DHT22;53462;39.616;8.824;2022-09-20T04:01:37;17.70;77.50
66608;DHT22;53462;39.616;8.824;2022-09-20T04:17:40;17.70;78.00
66608;DHT22;53462;39.616;8.824;2022-09-20T04:20:16;17.70;78.10
66608;DHT22;53462;39.616;8.824;2022-09-20T04:22:49;17.60;78.30
66608;DHT22;53462;39.616;8.824;2022-09-20T04:25:40;17.60;78.30
66608;DHT22;53462;39.616;8.824;2022-09-20T04:31:01;17.60;78.40
66608;DHT22;53462;39.616;8.824;2022-09-20T04:33:36;17.50;78.80
66608;DHT22;53462;39.616;8.824;2022-09-20T04:55:54;17.50;79.60
66608;DHT22;53462;39.616;8.824;2022-09-20T04:58:45;17.50;79.90
66608;DHT22;53462;39.616;8.824;2022-09-20T05:09:51;17.50;80.90
66608;DHT22;53462;39.616;8.824;2022-09-20T05:26:25;18.10;80.20
66608;DHT22;53462;39.616;8.824;2022-09-20T05:29:09;18.00;80.30
66608;DHT22;53462;39.616;8.824;2022-09-20T05:34:49;17.90;80.40
66608;DHT22;53462;39.616;8.824;2022-09-20T05:43:24;18.00;80.50
66608;DHT22;53462;39.616;8.824;2022-09-20T05:49:01;18.00;80.70
66608;DHT22;53462;39.616;8.824;2022-09-20T05:59:23;18.50;78.70
66608;DHT22;53462;39.616;8.824;2022-09-20T06:01:57;18.70;78.00
66608;DHT22;53462;39.616;8.824;2022-09-20T06:04:35;18.90;77.60
66608;DHT22;53462;39.616;8.824;2022-09-20T06:16:36;20.10;72.80
66608;DHT22;53462;39.616;8.824;2022-09-20T06:26:53;20.30;72.90
66608;DHT22;53462;39.616;8.824;2022-09-20T06:29:29;20.40;72.90
66608;DHT22;53462;39.616;8.824;2022-09-20T06:31:57;20.60;72.40
66608;DHT22;53462;39.616;8.824;2022-09-20T06:34:23;20.70;72.00
66608;DHT22;53462;39.616;8.824;2022-09-20T06:36:59;20.80;71.90
66608;DHT22;53462;39.616;8.824;2022-09-20T06:39:54;21.10;71.00
66608;DHT22;53462;39.616;8.824;2022-09-20T06:42:39;21.20;70.50
66608;DHT22;53462;39.616;8.824;2022-09-20T06:45:05;21.20;70.50
66608;DHT22;53462;39.616;8.824;2022-09-20T06:47:31;21.50;69.70
66608;DHT22;53462;39.616;8.824;2022-09-20T06:49:57;21.60;69.30
66608;DHT22;53462;39.616;8.824;2022-09-20T06:52:24;21.70;66.40
66608;DHT22;53462;39.616;8.824;2022-09-20T06:54:52;21.80;67.50
66608;DHT22;53462;39.616;8.824;2022-09-20T06:57:29;22.00;66.30
66608;DHT22;53462;39.616;8.824;2022-09-20T06:59:56;22.20;66.00
66608;DHT22;53462;39.616;8.824;2022-09-20T07:02:22;22.40;65.50
66608;DHT22;53462;39.616;8.824;2022-09-20T07:04:48;22.40;65.30
66608;DHT22;53462;39.616;8.824;2022-09-20T07:07:18;22.50;64.60
66608;DHT22;53462;39.616;8.824;2022-09-20T07:09:44;22.60;64.10
66608;DHT22;53462;39.616;8.824;2022-09-20T07:12:10;22.70;64.20
66608;DHT22;53462;39.616;8.824;2022-09-20T07:14:37;22.80;63.20
66608;DHT22;53462;39.616;8.824;2022-09-20T07:17:03;22.90;62.50
66608;DHT22;53462;39.616;8.824;2022-09-20T07:19:29;22.80;63.10
66608;DHT22;53462;39.616;8.824;2022-09-20T07:21:55;22.90;63.00
66608;DHT22;53462;39.616;8.824;2022-09-20T07:24:21;23.10;62.50
66608;DHT22;53462;39.616;8.824;2022-09-20T07:27:01;23.20;62.50
66608;DHT22;53462;39.616;8.824;2022-09-20T07:29:28;23.40;62.30
66608;DHT22;53462;39.616;8.824;2022-09-20T07:31:55;23.60;61.50
66608;DHT22;53462;39.616;8.824;2022-09-20T07:34:21;23.90;61.20
66608;DHT22;53462;39.616;8.824;2022-09-20T07:36:47;24.20;60.60
66608;DHT22;53462;39.616;8.824;2022-09-20T07:39:18;24.20;60.20
66608;DHT22;53462;39.616;8.824;2022-09-20T07:41:44;24.30;60.20
66608;DHT22;53462;39.616;8.824;2022-09-20T07:44:16;24.40;60.20
66608;DHT22;53462;39.616;8.824;2022-09-20T07:46:54;24.50;58.90
66608;DHT22;53462;39.616;8.824;2022-09-20T07:49:21;24.80;59.90
66608;DHT22;53462;39.616;8.824;2022-09-20T07:51:48;25.10;58.40
66608;DHT22;53462;39.616;8.824;2022-09-20T07:54:14;25.00;60.30
66608;DHT22;53462;39.616;8.824;2022-09-20T07:56:41;25.00;60.00
66608;DHT22;53462;39.616;8.824;2022-09-20T07:59:06;25.10;59.10
66608;DHT22;53462;39.616;8.824;2022-09-20T08:01:35;25.20;58.20
66608;DHT22;53462;39.616;8.824;2022-09-20T08:04:06;25.30;59.30
66608;DHT22;53462;39.616;8.824;2022-09-20T08:06:38;25.40;59.20
66608;DHT22;53462;39.616;8.824;2022-09-20T08:09:05;25.60;57.90
66608;DHT22;53462;39.616;8.824;2022-09-20T08:11:31;25.90;57.40
66608;DHT22;53462;39.616;8.824;2022-09-20T08:13:59;26.00;57.40
66608;DHT22;53462;39.616;8.824;2022-09-20T08:16:26;26.00;57.40
66608;DHT22;53462;39.616;8.824;2022-09-20T08:18:58;25.90;58.50
66608;DHT22;53462;39.616;8.824;2022-09-20T08:21:29;26.10;57.60
66608;DHT22;53462;39.616;8.824;2022-09-20T08:23:56;26.10;57.40
66608;DHT22;53462;39.616;8.824;2022-09-20T08:26:23;26.30;57.10
66608;DHT22;53462;39.616;8.824;2022-09-20T08:28:52;26.50;56.90
66608;DHT22;53462;39.616;8.824;2022-09-20T08:31:21;26.70;56.30
66608;DHT22;53462;39.616;8.824;2022-09-20T08:33:48;26.70;56.30
66608;DHT22;53462;39.616;8.824;2022-09-20T08:36:20;27.00;55.80
66608;DHT22;53462;39.616;8.824;2022-09-20T08:38:47;27.00;55.60
66608;DHT22;53462;39.616;8.824;2022-09-20T08:41:25;27.00;55.50
66608;DHT22;53462;39.616;8.824;2022-09-20T08:44:39;27.20;55.20
66608;DHT22;53462;39.616;8.824;2022-09-20T08:46:47;27.20;54.70
66608;DHT22;53462;39.616;8.824;2022-09-20T08:49:22;27.30;54.50
66608;DHT22;53462;39.616;8.824;2022-09-20T08:51:50;27.40;54.40
66608;DHT22;53462;39.616;8.824;2022-09-20T08:54:17;27.80;53.30
66608;DHT22;53462;39.616;8.824;2022-09-20T08:56:43;28.20;52.30
66608;DHT22;53462;39.616;8.824;2022-09-20T08:59:15;28.80;50.40
66608;DHT22;53462;39.616;8.824;2022-09-20T09:01:43;29.40;49.60
66608;DHT22;53462;39.616;8.824;2022-09-20T09:04:13;29.80;48.60
66608;DHT22;53462;39.616;8.824;2022-09-20T09:06:40;29.70;48.90
66608;DHT22;53462;39.616;8.824;2022-09-20T09:09:08;29.60;48.60
66608;DHT22;53462;39.616;8.824;2022-09-20T09:11:40;29.10;49.50
66608;DHT22;53462;39.616;8.824;2022-09-20T09:14:33;28.50;50.50
66608;DHT22;53462;39.616;8.824;2022-09-20T09:17:27;28.60;51.00
66608;DHT22;53462;39.616;8.824;2022-09-20T09:19:56;28.70;50.60
66608;DHT22;53462;39.616;8.824;2022-09-20T09:25:22;28.90;50.50
66608;DHT22;53462;39.616;8.824;2022-09-20T09:30:26;29.30;48.90
66608;DHT22;53462;39.616;8.824;2022-09-20T09:35:54;29.30;47.60
66608;DHT22;53462;39.616;8.824;2022-09-20T09:38:23;29.20;48.20
66608;DHT22;53462;39.616;8.824;2022-09-20T09:40:52;29.30;48.00
66608;DHT22;53462;39.616;8.824;2022-09-20T09:43:30;29.30;48.40
66608;DHT22;53462;39.616;8.824;2022-09-20T09:46:22;29.40;47.70
66608;DHT22;53462;39.616;8.824;2022-09-20T09:51:32;29.90;46.00
66608;DHT22;53462;39.616;8.824;2022-09-20T09:53:59;30.00;46.40
66608;DHT22;53462;39.616;8.824;2022-09-20T10:05:13;30.50;43.60
66608;DHT22;53462;39.616;8.824;2022-09-20T10:07:52;30.90;42.40
66608;DHT22;53462;39.616;8.824;2022-09-20T10:10:28;31.00;42.50
66608;DHT22;53462;39.616;8.824;2022-09-20T10:16:13;30.80;41.80
66608;DHT22;53462;39.616;8.824;2022-09-20T10:19:04;31.00;41.10
66608;DHT22;53462;39.616;8.824;2022-09-20T10:40:32;31.10;41.20
66608;DHT22;53462;39.616;8.824;2022-09-20T11:00:29;29.80;42.40
66608;DHT22;53462;39.616;8.824;2022-09-20T11:03:25;29.60;42.00
66608;DHT22;53462;39.616;8.824;2022-09-20T11:06:14;30.50;41.20
66608;DHT22;53462;39.616;8.824;2022-09-20T11:08:43;31.30;40.80
66608;DHT22;53462;39.616;8.824;2022-09-20T11:11:29;31.60;39.30
66608;DHT22;53462;39.616;8.824;2022-09-20T11:19:27;32.20;36.80
66608;DHT22;53462;39.616;8.824;2022-09-20T11:22:21;31.80;37.90
66608;DHT22;53462;39.616;8.824;2022-09-20T11:28:10;31.70;37.00
66608;DHT22;53462;39.616;8.824;2022-09-20T11:36:35;32.00;33.90
66608;DHT22;53462;39.616;8.824;2022-09-20T11:39:26;31.90;34.50
66608;DHT22;53462;39.616;8.824;2022-09-20T11:41:55;31.80;34.50
66608;DHT22;53462;39.616;8.824;2022-09-20T11:44:22;32.00;33.40
66608;DHT22;53462;39.616;8.824;2022-09-20T11:46:57;32.00;33.60
66608;DHT22;53462;39.616;8.824;2022-09-20T11:49:29;32.10;33.70
66608;DHT22;53462;39.616;8.824;2022-09-20T11:54:55;31.70;33.00
66608;DHT22;53462;39.616;8.824;2022-09-20T11:57:26;32.00;33.10
66608;DHT22;53462;39.616;8.824;2022-09-20T11:59:59;32.30;32.50
66608;DHT22;53462;39.616;8.824;2022-09-20T12:02:48;32.40;33.30
66608;DHT22;53462;39.616;8.824;2022-09-20T12:05:42;32.70;32.10
66608;DHT22;53462;39.616;8.824;2022-09-20T12:08:31;32.80;30.50
66608;DHT22;53462;39.616;8.824;2022-09-20T12:11:07;33.30;31.50
66608;DHT22;53462;39.616;8.824;2022-09-20T12:13:36;32.90;30.80
66608;DHT22;53462;39.616;8.824;2022-09-20T12:16:16;32.40;31.70
66608;DHT22;53462;39.616;8.824;2022-09-20T12:21:20;32.30;33.40
66608;DHT22;53462;39.616;8.824;2022-09-20T12:24:01;32.40;33.20
66608;DHT22;53462;39.616;8.824;2022-09-20T12:26:40;32.70;32.30
66608;DHT22;53462;39.616;8.824;2022-09-20T12:31:53;33.00;33.60
66608;DHT22;53462;39.616;8.824;2022-09-20T12:39:38;32.50;33.60
66608;DHT22;53462;39.616;8.824;2022-09-20T12:44:40;32.50;35.50
66608;DHT22;53462;39.616;8.824;2022-09-20T13:08:33;32.60;36.90
66608;DHT22;53462;39.616;8.824;2022-09-20T13:13:42;32.20;36.70
66608;DHT22;53462;39.616;8.824;2022-09-20T13:21:38;32.20;37.20
66608;DHT22;53462;39.616;8.824;2022-09-20T13:24:06;32.00;38.30
66608;DHT22;53462;39.616;8.824;2022-09-20T13:26:40;31.90;38.60
66608;DHT22;53462;39.616;8.824;2022-09-20T13:32:28;31.70;37.40
66608;DHT22;53462;39.616;8.824;2022-09-20T13:37:59;31.00;38.70
66608;DHT22;53462;39.616;8.824;2022-09-20T13:40:33;30.60;39.80
66608;DHT22;53462;39.616;8.824;2022-09-20T13:43:02;30.80;39.50
66608;DHT22;53462;39.616;8.824;2022-09-20T13:45:30;30.80;39.10
66608;DHT22;53462;39.616;8.824;2022-09-20T13:47:59;30.80;39.90
66608;DHT22;53462;39.616;8.824;2022-09-20T13:52:57;30.40;40.80
66608;DHT22;53462;39.616;8.824;2022-09-20T13:55:33;30.00;39.80
66608;DHT22;53462;39.616;8.824;2022-09-20T13:58:06;29.70;40.40
66608;DHT22;53462;39.616;8.824;2022-09-20T14:00:34;29.50;42.70
66608;DHT22;53462;39.616;8.824;2022-09-20T14:03:01;29.20;43.60
66608;DHT22;53462;39.616;8.824;2022-09-20T14:05:28;29.00;43.80
66608;DHT22;53462;39.616;8.824;2022-09-20T14:07:55;29.00;44.00
66608;DHT22;53462;39.616;8.824;2022-09-20T14:12:52;29.60;44.50
66608;DHT22;53462;39.616;8.824;2022-09-20T14:15:19;29.80;44.70
66608;DHT22;53462;39.616;8.824;2022-09-20T14:17:45;29.70;45.80
66608;DHT22;53462;39.616;8.824;2022-09-20T14:20:16;29.60;46.40
66608;DHT22;53462;39.616;8.824;2022-09-20T14:22:43;29.30;46.50
66608;DHT22;53462;39.616;8.824;2022-09-20T14:27:38;28.60;47.30
66608;DHT22;53462;39.616;8.824;2022-09-20T14:30:05;28.70;48.20
66608;DHT22;53462;39.616;8.824;2022-09-20T14:35:16;28.90;45.30
66608;DHT22;53462;39.616;8.824;2022-09-20T14:38:07;29.00;45.80
66608;DHT22;53462;39.616;8.824;2022-09-20T14:40:45;28.80;46.10
66608;DHT22;53462;39.616;8.824;2022-09-20T14:45:51;28.80;45.60
66608;DHT22;53462;39.616;8.824;2022-09-20T14:53:42;28.30;46.90
66608;DHT22;53462;39.616;8.824;2022-09-20T14:56:11;28.30;47.70
66608;DHT22;53462;39.616;8.824;2022-09-20T14:59:18;28.10;49.30
66608;DHT22;53462;39.616;8.824;2022-09-20T15:01:56;28.30;48.00
66608;DHT22;53462;39.616;8.824;2022-09-20T15:04:24;28.20;46.70
66608;DHT22;53462;39.616;8.824;2022-09-20T15:06:52;28.10;46.90
66608;DHT22;53462;39.616;8.824;2022-09-20T15:09:20;28.20;46.30
66608;DHT22;53462;39.616;8.824;2022-09-20T15:11:57;28.10;47.90
66608;DHT22;53462;39.616;8.824;2022-09-20T15:14:23;27.90;48.90
66608;DHT22;53462;39.616;8.824;2022-09-20T15:16:49;27.80;50.10
66608;DHT22;53462;39.616;8.824;2022-09-20T15:19:15;27.80;49.00
66608;DHT22;53462;39.616;8.824;2022-09-20T15:21:41;27.70;49.90
66608;DHT22;53462;39.616;8.824;2022-09-20T15:24:07;27.60;49.50
66608;DHT22;53462;39.616;8.824;2022-09-20T15:26:33;27.60;47.20
66608;DHT22;53462;39.616;8.824;2022-09-20T15:28:59;27.60;47.90
66608;DHT22;53462;39.616;8.824;2022-09-20T15:31:25;27.50;47.30
66608;DHT22;53462;39.616;8.824;2022-09-20T15:33:52;27.40;48.40
66608;DHT22;53462;39.616;8.824;2022-09-20T15:36:18;27.40;48.40
66608;DHT22;53462;39.616;8.824;2022-09-20T15:38:45;27.40;48.20
66608;DHT22;53462;39.616;8.824;2022-09-20T15:41:10;27.30;47.80
66608;DHT22;53462;39.616;8.824;2022-09-20T15:43:38;27.10;48.50
66608;DHT22;53462;39.616;8.824;2022-09-20T15:46:24;27.00;49.10
66608;DHT22;53462;39.616;8.824;2022-09-20T15:48:54;26.90;49.40
66608;DHT22;53462;39.616;8.824;2022-09-20T15:51:21;26.90;50.00
66608;DHT22;53462;39.616;8.824;2022-09-20T15:53:54;26.90;50.50
66608;DHT22;53462;39.616;8.824;2022-09-20T15:56:24;26.80;51.70
66608;DHT22;53462;39.616;8.824;2022-09-20T15:58:54;26.80;51.50
66608;DHT22;53462;39.616;8.824;2022-09-20T16:01:40;26.90;52.70
66608;DHT22;53462;39.616;8.824;2022-09-20T16:04:10;26.70;53.30
66608;DHT22;53462;39.616;8.824;2022-09-20T16:06:39;26.50;53.50
66608;DHT22;53462;39.616;8.824;2022-09-20T16:09:05;26.60;54.10
66608;DHT22;53462;39.616;8.824;2022-09-20T16:11:32;26.60;54.30
66608;DHT22;53462;39.616;8.824;2022-09-20T16:13:59;26.70;54.90
66608;DHT22;53462;39.616;8.824;2022-09-20T16:16:27;26.40;56.30
66608;DHT22;53462;39.616;8.824;2022-09-20T16:18:54;26.20;56.40
66608;DHT22;53462;39.616;8.824;2022-09-20T16:21:40;26.20;56.30
66608;DHT22;53462;39.616;8.824;2022-09-20T16:24:08;26.00;56.30
66608;DHT22;53462;39.616;8.824;2022-09-20T16:26:34;26.00;57.00
66608;DHT22;53462;39.616;8.824;2022-09-20T16:29:01;25.80;56.80
66608;DHT22;53462;39.616;8.824;2022-09-20T16:31:43;25.80;56.10
66608;DHT22;53462;39.616;8.824;2022-09-20T16:34:24;25.70;56.70
66608;DHT22;53462;39.616;8.824;2022-09-20T16:37:01;25.70;56.80
66608;DHT22;53462;39.616;8.824;2022-09-20T16:39:29;25.50;56.80
66608;DHT22;53462;39.616;8.824;2022-09-20T16:41:57;25.50;56.10
66608;DHT22;53462;39.616;8.824;2022-09-20T16:44:36;25.50;56.30
66608;DHT22;53462;39.616;8.824;2022-09-20T16:47:04;25.30;56.70
66608;DHT22;53462;39.616;8.824;2022-09-20T16:49:34;25.10;57.80
66608;DHT22;53462;39.616;8.824;2022-09-20T16:52:02;25.00;58.70
66608;DHT22;53462;39.616;8.824;2022-09-20T16:54:28;25.00;59.10
66608;DHT22;53462;39.616;8.824;2022-09-20T16:56:55;25.00;59.30
66608;DHT22;53462;39.616;8.824;2022-09-20T16:59:20;24.90;59.70
66608;DHT22;53462;39.616;8.824;2022-09-20T17:01:47;24.80;60.50
66608;DHT22;53462;39.616;8.824;2022-09-20T17:04:14;24.90;60.00
66608;DHT22;53462;39.616;8.824;2022-09-20T17:06:43;24.80;60.50
66608;DHT22;53462;39.616;8.824;2022-09-20T17:09:10;24.80;60.10
66608;DHT22;53462;39.616;8.824;2022-09-20T17:11:42;24.70;60.50
66608;DHT22;53462;39.616;8.824;2022-09-20T17:14:13;24.60;60.90
66608;DHT22;53462;39.616;8.824;2022-09-20T17:16:41;24.40;61.30
66608;DHT22;53462;39.616;8.824;2022-09-20T17:19:09;24.40;61.50
66608;DHT22;53462;39.616;8.824;2022-09-20T17:21:40;24.20;61.60
66608;DHT22;53462;39.616;8.824;2022-09-20T17:24:11;24.30;61.90
66608;DHT22;53462;39.616;8.824;2022-09-20T17:26:41;24.20;62.00
66608;DHT22;53462;39.616;8.824;2022-09-20T17:29:10;24.10;62.70
66608;DHT22;53462;39.616;8.824;2022-09-20T17:31:40;24.10;63.00
66608;DHT22;53462;39.616;8.824;2022-09-20T17:34:09;24.00;63.50
66608;DHT22;53462;39.616;8.824;2022-09-20T17:36:38;23.90;63.80
66608;DHT22;53462;39.616;8.824;2022-09-20T17:39:05;23.90;64.30
66608;DHT22;53462;39.616;8.824;2022-09-20T17:41:32;23.80;64.50
66608;DHT22;53462;39.616;8.824;2022-09-20T17:44:02;23.70;65.00
66608;DHT22;53462;39.616;8.824;2022-09-20T17:46:34;23.80;64.70
66608;DHT22;53462;39.616;8.824;2022-09-20T17:49:21;23.70;65.20
66608;DHT22;53462;39.616;8.824;2022-09-20T17:51:48;23.60;65.40
66608;DHT22;53462;39.616;8.824;2022-09-20T17:54:15;23.50;65.60
66608;DHT22;53462;39.616;8.824;2022-09-20T17:56:42;23.60;65.70
66608;DHT22;53462;39.616;8.824;2022-09-20T17:59:09;23.50;65.70
66608;DHT22;53462;39.616;8.824;2022-09-20T18:01:37;23.40;66.20
66608;DHT22;53462;39.616;8.824;2022-09-20T18:04:04;23.40;66.50
66608;DHT22;53462;39.616;8.824;2022-09-20T18:09:04;23.40;66.80
66608;DHT22;53462;39.616;8.824;2022-09-20T18:11:50;23.30;67.00
66608;DHT22;53462;39.616;8.824;2022-09-20T18:14:19;23.20;67.80
66608;DHT22;53462;39.616;8.824;2022-09-20T18:16:46;23.10;68.00
66608;DHT22;53462;39.616;8.824;2022-09-20T18:19:12;23.10;68.00
66608;DHT22;53462;39.616;8.824;2022-09-20T18:21:40;23.10;68.10
66608;DHT22;53462;39.616;8.824;2022-09-20T18:24:08;23.00;68.40
66608;DHT22;53462;39.616;8.824;2022-09-20T18:26:35;22.80;68.80
66608;DHT22;53462;39.616;8.824;2022-09-20T18:29:15;22.80;69.20
66608;DHT22;53462;39.616;8.824;2022-09-20T18:31:52;22.80;69.00
66608;DHT22;53462;39.616;8.824;2022-09-20T18:34:26;22.70;69.20
66608;DHT22;53462;39.616;8.824;2022-09-20T18:36:56;22.60;69.60
66608;DHT22;53462;39.616;8.824;2022-09-20T18:39:30;22.60;70.00
66608;DHT22;53462;39.616;8.824;2022-09-20T18:42:00;22.50;70.20
66608;DHT22;53462;39.616;8.824;2022-09-20T18:44:27;22.60;70.20
66608;DHT22;53462;39.616;8.824;2022-09-20T18:46:56;22.60;70.00
66608;DHT22;53462;39.616;8.824;2022-09-20T18:49:24;22.50;70.00
66608;DHT22;53462;39.616;8.824;2022-09-20T18:51:50;22.40;70.30
66608;DHT22;53462;39.616;8.824;2022-09-20T18:54:17;22.30;70.50
66608;DHT22;53462;39.616;8.824;2022-09-20T18:56:48;22.30;70.60
66608;DHT22;53462;39.616;8.824;2022-09-20T18:59:18;22.20;70.60
66608;DHT22;53462;39.616;8.824;2022-09-20T19:04:28;22.20;70.60
66608;DHT22;53462;39.616;8.824;2022-09-20T19:12:29;21.90;71.80
66608;DHT22;53462;39.616;8.824;2022-09-20T19:23:08;21.70;72.70
66608;DHT22;53462;39.616;8.824;2022-09-20T19:25:44;21.80;72.80
66608;DHT22;53462;39.616;8.824;2022-09-20T19:28:13;21.80;72.70
66608;DHT22;53462;39.616;8.824;2022-09-20T19:30:40;21.80;72.60
66608;DHT22;53462;39.616;8.824;2022-09-20T19:33:17;21.70;72.70
66608;DHT22;53462;39.616;8.824;2022-09-20T19:35:47;21.80;72.70
66608;DHT22;53462;39.616;8.824;2022-09-20T19:41:29;21.80;72.70
66608;DHT22;53462;39.616;8.824;2022-09-20T19:44:22;21.70;73.10
66608;DHT22;53462;39.616;8.824;2022-09-20T19:49:57;21.70;73.30
66608;DHT22;53462;39.616;8.824;2022-09-20T19:52:22;21.70;73.40
66608;DHT22;53462;39.616;8.824;2022-09-20T19:54:49;21.60;73.30
66608;DHT22;53462;39.616;8.824;2022-09-20T19:57:22;21.60;73.40
66608;DHT22;53462;39.616;8.824;2022-09-20T19:59:53;21.60;73.50
66608;DHT22;53462;39.616;8.824;2022-09-20T20:02:20;21.70;73.30
66608;DHT22;53462;39.616;8.824;2022-09-20T20:04:46;21.70;73.30
66608;DHT22;53462;39.616;8.824;2022-09-20T20:07:20;21.50;73.70
66608;DHT22;53462;39.616;8.824;2022-09-20T20:13:09;21.50;73.70
66608;DHT22;53462;39.616;8.824;2022-09-20T20:16:05;21.50;73.80
66608;DHT22;53462;39.616;8.824;2022-09-20T20:19:01;21.40;74.00
66608;DHT22;53462;39.616;8.824;2022-09-20T20:21:48;21.30;74.20
66608;DHT22;53462;39.616;8.824;2022-09-20T20:24:29;21.30;74.40
66608;DHT22;53462;39.616;8.824;2022-09-20T20:26:57;21.30;74.30
66608;DHT22;53462;39.616;8.824;2022-09-20T20:29:23;21.30;74.30
66608;DHT22;53462;39.616;8.824;2022-09-20T20:31:49;21.30;74.40
66608;DHT22;53462;39.616;8.824;2022-09-20T20:34:15;21.40;74.50
66608;DHT22;53462;39.616;8.824;2022-09-20T20:36:42;21.30;74.60
66608;DHT22;53462;39.616;8.824;2022-09-20T20:39:09;21.30;74.90
66608;DHT22;53462;39.616;8.824;2022-09-20T20:41:35;21.20;75.10
66608;DHT22;53462;39.616;8.824;2022-09-20T20:44:02;21.10;75.30
66608;DHT22;53462;39.616;8.824;2022-09-20T20:46:32;20.90;75.70
66608;DHT22;53462;39.616;8.824;2022-09-20T20:49:01;20.80;76.20
66608;DHT22;53462;39.616;8.824;2022-09-20T20:51:27;20.70;76.60
66608;DHT22;53462;39.616;8.824;2022-09-20T20:53:53;20.70;76.80
66608;DHT22;53462;39.616;8.824;2022-09-20T20:56:25;20.60;77.00
66608;DHT22;53462;39.616;8.824;2022-09-20T20:58:53;20.60;76.90
66608;DHT22;53462;39.616;8.824;2022-09-20T21:01:25;20.50;77.10
66608;DHT22;53462;39.616;8.824;2022-09-20T21:03:52;20.40;77.40
66608;DHT22;53462;39.616;8.824;2022-09-20T21:06:19;20.30;77.80
66608;DHT22;53462;39.616;8.824;2022-09-20T21:08:47;20.20;78.20
66608;DHT22;53462;39.616;8.824;2022-09-20T21:11:21;20.20;78.50
66608;DHT22;53462;39.616;8.824;2022-09-20T21:13:55;20.40;78.00
66608;DHT22;53462;39.616;8.824;2022-09-20T21:16:27;20.40;77.70
66608;DHT22;53462;39.616;8.824;2022-09-20T21:18:54;20.40;77.90
66608;DHT22;53462;39.616;8.824;2022-09-20T21:23:55;20.40;77.80
66608;DHT22;53462;39.616;8.824;2022-09-20T21:26:22;20.40;78.10
66608;DHT22;53462;39.616;8.824;2022-09-20T21:28:56;20.40;78.00
66608;DHT22;53462;39.616;8.824;2022-09-20T21:31:30;20.50;78.20
66608;DHT22;53462;39.616;8.824;2022-09-20T21:33:57;20.50;78.30
66608;DHT22;53462;39.616;8.824;2022-09-20T21:36:26;20.60;78.30
66608;DHT22;53462;39.616;8.824;2022-09-20T21:38:52;20.70;77.80
66608;DHT22;53462;39.616;8.824;2022-09-20T21:41:19;20.70;77.80
66608;DHT22;53462;39.616;8.824;2022-09-20T21:43:47;20.80;78.10
66608;DHT22;53462;39.616;8.824;2022-09-20T21:46:16;20.70;78.00
66608;DHT22;53462;39.616;8.824;2022-09-20T21:48:42;20.60;78.50
66608;DHT22;53462;39.616;8.824;2022-09-20T21:51:10;20.70;78.70
66608;DHT22;53462;39.616;8.824;2022-09-20T21:53:38;20.60;78.50
66608;DHT22;53462;39.616;8.824;2022-09-20T21:56:06;20.50;78.90
66608;DHT22;53462;39.616;8.824;2022-09-20T21:58:33;20.50;79.30
66608;DHT22;53462;39.616;8.824;2022-09-20T22:01:00;20.50;79.60
66608;DHT22;53462;39.616;8.824;2022-09-20T22:03:38;20.50;79.70
66608;DHT22;53462;39.616;8.824;2022-09-20T22:06:12;20.50;79.90
66608;DHT22;53462;39.616;8.824;2022-09-20T22:08:41;20.40;79.90
66608;DHT22;53462;39.616;8.824;2022-09-20T22:11:08;20.30;80.00
66608;DHT22;53462;39.616;8.824;2022-09-20T22:13:39;20.30;80.50